CYNR

METAR CYNR 160300Z AUTO 24009KT 9SM FEW052 BKN074 M00/M04 A2946 RMK AO2 SLP993
METAR
LOCATION
CYNR
DATE - TIME
160300Z
WIND
240 TRUE @ 9 KNOTS
VISIBILITY
9SM
RUNWAY VISUAL RANGE
NOT REPORTED
WEATHER
CLOUDINESS
FEW052 BKN074
TEMP / DEWPOINT
-0 ºC / -4 ºC
ALTIMETER
29.46 in. Hg
RECENT WEATHER
NOT REPORTED
WIND SHEAR
NOT REPORTED
REMARKS
RMK AO2 SLP993
SEA LEVEL PRESSURE: hPa

CYNR

METAR CYNR 160200Z AUTO 20008KT 9SM FEW072 M02/M05 A2945 RMK AO2 SLP993
METAR
LOCATION
CYNR
DATE - TIME
160200Z
WIND
200 TRUE @ 8 KNOTS
VISIBILITY
9SM
RUNWAY VISUAL RANGE
NOT REPORTED
WEATHER
CLOUDINESS
FEW072
TEMP / DEWPOINT
-2 ºC / -5 ºC
ALTIMETER
29.45 in. Hg
RECENT WEATHER
NOT REPORTED
WIND SHEAR
NOT REPORTED
REMARKS
RMK AO2 SLP993
SEA LEVEL PRESSURE: hPa

CYNR

METAR CYNR 160100Z AUTO 19009KT 9SM CLR M01/M04 A2945 RMK AO2 SLP991
METAR
LOCATION
CYNR
DATE - TIME
160100Z
WIND
190 TRUE @ 9 KNOTS
VISIBILITY
9SM
RUNWAY VISUAL RANGE
NOT REPORTED
WEATHER
CLOUDINESS
CLR
TEMP / DEWPOINT
-1 ºC / -4 ºC
ALTIMETER
29.45 in. Hg
RECENT WEATHER
NOT REPORTED
WIND SHEAR
NOT REPORTED
REMARKS
RMK AO2 SLP991
SEA LEVEL PRESSURE: hPa

Your time UTC time
 
 
Weather data provided by AXYS Technologies Inc., www.axystechnologies.com
 
Station History